createdAt,value
2023-03-17T00:01:07.422Z,10.32
2023-03-17T00:03:45.796Z,8.77
2023-03-17T00:06:20.252Z,8.52
2023-03-17T00:08:50.905Z,10.45
2023-03-17T00:11:23.523Z,8.23
2023-03-17T00:13:56.538Z,9.30
2023-03-17T00:16:33.958Z,8.75
2023-03-17T00:19:05.508Z,8.52
2023-03-17T00:21:37.910Z,10.38
2023-03-17T00:24:15.022Z,8.32
2023-03-17T00:26:46.057Z,8.63
2023-03-17T00:29:17.678Z,8.02
2023-03-17T00:31:49.527Z,7.13
2023-03-17T00:34:21.120Z,8.90
2023-03-17T00:36:54.031Z,8.43
2023-03-17T00:39:28.158Z,8.10
2023-03-17T00:41:59.103Z,8.18
2023-03-17T00:44:30.505Z,9.68
2023-03-17T00:47:02.703Z,8.82
2023-03-17T00:49:34.192Z,7.82
2023-03-17T00:52:04.634Z,8.55
2023-03-17T00:54:35.276Z,8.57
2023-03-17T00:57:05.592Z,9.70
2023-03-17T00:59:43.708Z,7.65
2023-03-17T01:02:15.311Z,7.38
2023-03-17T01:05:12.321Z,7.30
2023-03-17T01:07:55.141Z,7.57
2023-03-17T01:10:29.490Z,7.40
2023-03-17T01:13:07.679Z,7.82
2023-03-17T01:15:47.704Z,9.75
2023-03-17T01:18:20.977Z,9.23
2023-03-17T01:20:53.163Z,9.20
2023-03-17T01:23:24.838Z,9.07
2023-03-17T01:25:57.256Z,8.63
2023-03-17T01:28:28.933Z,7.95
2023-03-17T01:30:59.502Z,7.75
2023-03-17T01:33:30.576Z,8.20
2023-03-17T01:36:07.397Z,8.15
2023-03-17T01:39:05.025Z,9.13
2023-03-17T01:41:42.323Z,8.20
2023-03-17T01:44:28.323Z,9.05
2023-03-17T01:47:01.039Z,8.18
2023-03-17T01:49:40.410Z,8.27
2023-03-17T01:52:23.686Z,9.02
2023-03-17T01:54:58.845Z,7.30
2023-03-17T01:57:43.700Z,7.47
2023-03-17T02:00:23.967Z,6.95
2023-03-17T02:02:59.262Z,7.90
2023-03-17T02:05:33.215Z,9.90
2023-03-17T02:08:05.208Z,7.28
2023-03-17T02:10:36.953Z,8.85
2023-03-17T02:13:08.246Z,8.95
2023-03-17T02:15:46.179Z,9.82
2023-03-17T02:18:19.122Z,11.10
2023-03-17T02:20:49.234Z,9.15
2023-03-17T02:23:24.276Z,8.63
2023-03-17T02:25:55.914Z,10.10
2023-03-17T02:28:33.405Z,10.73
2023-03-17T02:31:07.030Z,8.95
2023-03-17T02:33:37.268Z,8.95
2023-03-17T02:36:11.021Z,10.52
2023-03-17T02:38:42.409Z,11.63
2023-03-17T02:41:13.994Z,7.10
2023-03-17T02:43:46.382Z,8.35
2023-03-17T02:46:18.921Z,8.73
2023-03-17T02:48:51.615Z,7.68
2023-03-17T02:51:22.029Z,8.45
2023-03-17T02:53:52.734Z,10.43
2023-03-17T02:56:23.931Z,11.25
2023-03-17T02:58:54.787Z,11.68
2023-03-17T03:01:28.579Z,11.00
2023-03-17T03:04:00.001Z,14.30
2023-03-17T03:06:31.013Z,13.68
2023-03-17T03:09:02.818Z,14.15
2023-03-17T03:11:33.864Z,13.15
2023-03-17T03:14:04.960Z,11.52
2023-03-17T03:16:37.723Z,16.13
2023-03-17T03:19:10.978Z,13.07
2023-03-17T03:21:44.116Z,12.85
2023-03-17T03:24:14.798Z,13.20
2023-03-17T03:26:45.978Z,13.25
2023-03-17T03:29:19.369Z,12.57
2023-03-17T03:31:50.805Z,11.60
2023-03-17T03:34:22.621Z,12.65
2023-03-17T03:36:53.556Z,12.52
2023-03-17T03:39:24.292Z,15.48
2023-03-17T03:41:59.586Z,17.60
2023-03-17T03:44:30.128Z,17.85
2023-03-17T03:47:00.370Z,16.80
2023-03-17T03:49:31.557Z,16.63
2023-03-17T03:52:01.917Z,14.82
2023-03-17T03:54:32.309Z,13.63
2023-03-17T03:57:03.495Z,15.00
2023-03-17T03:59:34.730Z,17.70
2023-03-17T04:02:05.196Z,17.02
2023-03-17T04:04:36.391Z,14.07
2023-03-17T04:07:07.606Z,13.45
2023-03-17T04:09:40.089Z,12.15
2023-03-17T04:12:14.303Z,10.38
2023-03-17T04:14:47.789Z,11.30
2023-03-17T04:17:18.309Z,10.40
2023-03-17T04:19:49.795Z,11.07
2023-03-17T04:22:24.418Z,10.85
2023-03-17T04:24:55.806Z,9.63
2023-03-17T04:27:27.421Z,9.40
2023-03-17T04:30:02.099Z,8.75
2023-03-17T04:32:34.187Z,9.52
2023-03-17T04:35:04.584Z,8.63
2023-03-17T04:37:34.806Z,7.25
2023-03-17T04:40:10.694Z,6.07
2023-03-17T04:42:45.125Z,4.53
2023-03-17T04:45:19.396Z,4.63
2023-03-17T04:47:50.353Z,5.45
2023-03-17T04:50:20.865Z,6.13
2023-03-17T04:52:52.030Z,5.68
2023-03-17T04:55:23.692Z,6.28
2023-03-17T04:57:55.547Z,6.13
2023-03-17T05:00:27.329Z,6.05
2023-03-17T05:03:01.112Z,5.05
2023-03-17T05:05:32.280Z,5.10
2023-03-17T05:08:03.427Z,4.68
2023-03-17T05:10:33.863Z,5.75
2023-03-17T05:13:06.277Z,6.78
2023-03-17T05:15:38.649Z,8.05
2023-03-17T05:20:38.462Z,15.73
2023-03-17T05:23:10.047Z,12.70
2023-03-17T05:25:41.950Z,10.45
2023-03-17T05:28:13.050Z,11.05
2023-03-17T05:30:46.568Z,10.18
2023-03-17T05:33:17.962Z,10.65
2023-03-17T05:35:49.541Z,10.18
2023-03-17T05:38:19.712Z,9.48
2023-03-17T05:40:53.038Z,9.10
2023-03-17T05:43:24.675Z,8.90
2023-03-17T05:45:56.399Z,8.75
2023-03-17T05:48:35.286Z,9.45
2023-03-17T05:51:09.534Z,9.75
2023-03-17T05:53:41.308Z,9.18
2023-03-17T05:56:12.957Z,8.95
2023-03-17T05:58:44.197Z,10.20
2023-03-17T06:01:16.948Z,10.43
2023-03-17T06:03:48.925Z,11.68
2023-03-17T06:06:23.356Z,9.68
2023-03-17T06:08:54.591Z,10.57
2023-03-17T06:11:25.593Z,9.57
2023-03-17T06:13:56.903Z,8.13
2023-03-17T06:16:28.416Z,9.32
2023-03-17T06:18:58.863Z,9.35
2023-03-17T06:21:30.032Z,8.88
2023-03-17T06:24:03.257Z,8.77
2023-03-17T06:26:33.487Z,10.25
2023-03-17T06:29:05.465Z,8.27
2023-03-17T06:31:37.350Z,10.45
2023-03-17T06:34:08.658Z,9.25
2023-03-17T06:36:41.378Z,9.60
2023-03-17T06:39:13.339Z,9.13
2023-03-17T06:41:44.732Z,9.13
2023-03-17T06:44:15.578Z,9.48
2023-03-17T06:46:46.584Z,8.23
2023-03-17T06:49:17.395Z,9.55
2023-03-17T06:51:48.679Z,9.65
2023-03-17T06:54:21.494Z,10.85
2023-03-17T06:56:52.314Z,8.90
2023-03-17T06:59:25.276Z,9.63
2023-03-17T07:01:56.212Z,8.18
2023-03-17T07:04:27.962Z,8.43
2023-03-17T07:06:59.979Z,8.55
2023-03-17T07:09:31.580Z,8.50
2023-03-17T07:12:07.065Z,8.38
2023-03-17T07:14:38.947Z,8.35
2023-03-17T07:17:10.460Z,9.27
2023-03-17T07:19:43.109Z,9.65
2023-03-17T07:22:15.740Z,10.73
2023-03-17T07:24:49.856Z,8.18
2023-03-17T07:27:23.260Z,9.20
2023-03-17T07:29:57.012Z,10.43
2023-03-17T07:32:28.611Z,9.98
2023-03-17T07:35:00.953Z,11.23
2023-03-17T07:37:31.258Z,9.60
2023-03-17T07:40:03.050Z,10.50
2023-03-17T07:42:34.432Z,11.77
2023-03-17T07:45:07.851Z,9.65
2023-03-17T07:47:38.578Z,10.40
2023-03-17T07:50:10.301Z,10.68
2023-03-17T07:52:41.440Z,12.38
2023-03-17T07:55:14.835Z,11.18
2023-03-17T07:57:45.694Z,10.35
2023-03-17T08:00:16.515Z,9.02
2023-03-17T08:02:59.617Z,8.15
2023-03-17T08:05:37.539Z,6.55
2023-03-17T08:08:08.045Z,5.97
2023-03-17T08:10:39.230Z,5.53
2023-03-17T08:13:09.726Z,4.53
2023-03-17T08:15:39.767Z,4.13
2023-03-17T08:18:10.385Z,3.97
2023-03-17T08:20:40.584Z,3.40
2023-03-17T08:23:10.836Z,3.58
2023-03-17T08:25:40.906Z,3.60
2023-03-17T08:28:11.796Z,4.32
2023-03-17T08:30:43.475Z,3.45
2023-03-17T08:33:15.257Z,3.78
2023-03-17T08:35:45.725Z,3.63
2023-03-17T08:38:18.855Z,4.00
2023-03-17T08:40:52.842Z,5.85
2023-03-17T08:43:23.489Z,8.93
2023-03-17T08:45:56.743Z,10.85
2023-03-17T08:48:28.259Z,12.27
2023-03-17T08:51:01.228Z,12.05
2023-03-17T08:53:33.186Z,13.18
2023-03-17T08:56:05.306Z,11.25
2023-03-17T08:58:38.982Z,10.45
2023-03-17T09:01:11.086Z,10.82
2023-03-17T09:03:43.536Z,11.45
2023-03-17T09:06:15.604Z,9.70
2023-03-17T09:08:49.601Z,9.55
2023-03-17T09:11:23.043Z,8.90
2023-03-17T09:13:55.194Z,8.60
2023-03-17T09:16:28.145Z,7.68
2023-03-17T09:18:59.922Z,9.13
2023-03-17T09:21:31.393Z,8.95
2023-03-17T09:24:02.857Z,9.55
2023-03-17T09:26:34.276Z,11.52
2023-03-17T09:29:10.213Z,10.05
2023-03-17T09:31:41.067Z,10.02
2023-03-17T09:34:13.381Z,9.20
2023-03-17T09:36:44.640Z,8.32
2023-03-17T09:39:16.128Z,8.98
2023-03-17T09:42:18.277Z,8.02
2023-03-17T09:45:05.305Z,8.65
2023-03-17T09:48:12.216Z,7.60
2023-03-17T09:51:12.472Z,7.45
2023-03-17T09:56:23.309Z,7.15
2023-03-17T09:59:14.956Z,7.78
2023-03-17T10:01:46.036Z,7.72
2023-03-17T10:04:19.067Z,10.82
2023-03-17T10:06:52.219Z,9.32
2023-03-17T10:10:06.590Z,8.90
2023-03-17T10:13:11.568Z,8.30
2023-03-17T10:15:48.165Z,8.68
2023-03-17T10:18:50.300Z,7.35
2023-03-17T10:21:35.649Z,8.30
2023-03-17T10:24:07.276Z,7.75
2023-03-17T10:26:51.664Z,7.95
2023-03-17T10:29:26.603Z,8.07
2023-03-17T10:32:00.438Z,8.25
2023-03-17T10:34:38.465Z,6.82
2023-03-17T10:37:17.657Z,6.90
2023-03-17T10:39:55.174Z,6.15
2023-03-17T10:42:31.515Z,7.00
2023-03-17T10:45:27.469Z,7.35
2023-03-17T10:48:00.520Z,8.68
2023-03-17T10:50:34.915Z,8.60
2023-03-17T10:53:32.906Z,10.43
2023-03-17T10:56:11.796Z,8.68
2023-03-17T10:58:55.149Z,10.02
2023-03-17T11:01:36.857Z,7.95
2023-03-17T11:04:29.094Z,9.48
2023-03-17T11:07:04.471Z,12.40
2023-03-17T11:09:41.990Z,9.15
2023-03-17T11:12:30.912Z,8.30
2023-03-17T11:15:20.551Z,7.97
2023-03-17T11:18:02.629Z,8.38
2023-03-17T11:21:05.824Z,8.90
2023-03-17T11:24:09.419Z,6.45
2023-03-17T11:27:01.113Z,7.45
2023-03-17T11:29:58.348Z,10.05
2023-03-17T11:32:42.863Z,9.50
2023-03-17T11:35:21.663Z,8.55
2023-03-17T11:38:13.725Z,9.70
2023-03-17T11:41:08.040Z,9.55
2023-03-17T11:43:56.927Z,9.90
2023-03-17T11:46:39.394Z,7.80
2023-03-17T11:49:38.340Z,7.05
2023-03-17T11:52:28.747Z,7.85
2023-03-17T11:55:24.027Z,8.45
2023-03-17T11:58:21.140Z,7.93
2023-03-17T12:01:02.713Z,7.30
2023-03-17T12:03:55.093Z,7.28
2023-03-17T12:06:49.076Z,7.22
2023-03-17T12:09:34.804Z,8.05
2023-03-17T12:12:13.823Z,7.70
2023-03-17T12:14:52.860Z,7.45
2023-03-17T12:18:08.982Z,7.45
2023-03-17T12:21:23.006Z,8.30
2023-03-17T12:24:17.288Z,7.28
2023-03-17T12:27:26.070Z,7.97
2023-03-17T12:29:59.520Z,8.02
2023-03-17T12:32:56.939Z,9.00
2023-03-17T12:35:37.016Z,7.22
2023-03-17T12:38:38.897Z,7.60
2023-03-17T12:41:20.549Z,7.40
2023-03-17T12:44:10.607Z,7.03
2023-03-17T12:47:05.442Z,6.63
2023-03-17T12:50:08.386Z,7.50
2023-03-17T12:53:03.199Z,7.47
2023-03-17T12:55:44.562Z,5.93
2023-03-17T12:58:54.202Z,6.53
2023-03-17T13:01:47.041Z,6.55
2023-03-17T13:04:44.545Z,6.10
2023-03-17T13:07:26.880Z,7.63
2023-03-17T13:10:15.627Z,6.20
2023-03-17T13:13:08.422Z,6.68
2023-03-17T13:15:43.811Z,7.57
2023-03-17T13:21:25.210Z,6.20
2023-03-17T13:24:26.192Z,6.97
2023-03-17T13:27:06.910Z,6.55
2023-03-17T13:29:43.662Z,6.30
2023-03-17T13:32:38.957Z,6.20
2023-03-17T13:35:24.250Z,6.05
2023-03-17T13:38:19.978Z,7.22
2023-03-17T13:41:13.909Z,5.53
2023-03-17T13:44:02.116Z,6.22
2023-03-17T13:46:36.498Z,5.85
2023-03-17T13:49:20.873Z,7.38
2023-03-17T13:52:06.655Z,6.88
2023-03-17T13:54:45.078Z,6.70
2023-03-17T13:57:28.984Z,5.97
2023-03-17T14:00:06.151Z,6.90
2023-03-17T14:02:43.854Z,7.05
2023-03-17T14:05:33.642Z,6.97
2023-03-17T14:08:18.249Z,6.82
2023-03-17T14:11:04.159Z,5.45
2023-03-17T14:14:02.449Z,7.13
2023-03-17T14:17:15.748Z,6.75
2023-03-17T14:20:03.831Z,6.05
2023-03-17T14:22:35.257Z,6.93
2023-03-17T14:25:10.135Z,6.30
2023-03-17T14:27:44.516Z,6.68
2023-03-17T14:30:30.895Z,4.68
2023-03-17T14:33:20.853Z,6.22
2023-03-17T14:35:54.993Z,5.95
2023-03-17T14:38:42.713Z,5.07
2023-03-17T14:41:25.454Z,4.68
2023-03-17T14:44:01.538Z,5.93
2023-03-17T14:46:43.358Z,4.80
2023-03-17T14:49:25.337Z,5.38
2023-03-17T14:51:58.913Z,5.78
2023-03-17T14:54:37.350Z,6.55
2023-03-17T14:57:14.756Z,4.45
2023-03-17T15:00:03.768Z,4.32
2023-03-17T15:02:41.725Z,4.72
2023-03-17T15:05:31.449Z,5.00
2023-03-17T15:08:03.876Z,4.97
2023-03-17T15:10:43.937Z,4.40
2023-03-17T15:13:16.317Z,4.20
2023-03-17T15:15:49.180Z,5.65
2023-03-17T15:21:35.423Z,4.72
2023-03-17T15:24:27.873Z,5.97
2023-03-17T15:27:09.622Z,4.70
2023-03-17T15:29:46.406Z,4.43
2023-03-17T15:32:25.594Z,4.60
2023-03-17T15:35:04.196Z,4.03
2023-03-17T15:37:35.954Z,5.60
2023-03-17T15:40:08.013Z,4.75
2023-03-17T15:42:41.753Z,6.05
2023-03-17T15:45:20.224Z,4.65
2023-03-17T15:47:51.198Z,4.78
2023-03-17T15:50:34.430Z,5.10
2023-03-17T15:53:05.326Z,4.85
2023-03-17T15:55:39.857Z,4.30
2023-03-17T15:58:16.060Z,5.10
2023-03-17T16:00:59.488Z,5.72
2023-03-17T16:03:40.900Z,6.18
2023-03-17T16:08:54.466Z,5.32
2023-03-17T16:11:30.805Z,5.07
2023-03-17T16:14:01.844Z,5.18
2023-03-17T16:16:41.173Z,4.80
2023-03-17T16:19:23.104Z,6.10
2023-03-17T16:21:55.114Z,4.50
2023-03-17T16:24:28.929Z,4.75
2023-03-17T16:26:59.361Z,4.80
2023-03-17T16:29:30.402Z,4.50
2023-03-17T16:32:01.885Z,4.63
2023-03-17T16:34:33.232Z,5.30
2023-03-17T16:37:05.837Z,4.95
2023-03-17T16:39:38.231Z,5.15
2023-03-17T16:42:25.791Z,4.80
2023-03-17T16:44:56.727Z,5.57
2023-03-17T16:47:27.325Z,5.78
2023-03-17T16:49:58.814Z,4.82
2023-03-17T16:52:31.407Z,6.35
2023-03-17T16:55:03.081Z,5.13
2023-03-17T16:57:35.508Z,5.53
2023-03-17T17:00:10.890Z,4.95
2023-03-17T17:02:42.593Z,5.28
2023-03-17T17:05:22.462Z,5.13
2023-03-17T17:07:56.261Z,5.63
2023-03-17T17:10:30.197Z,4.63
2023-03-17T17:13:02.094Z,5.25
2023-03-17T17:15:33.763Z,4.90
2023-03-17T17:18:17.756Z,5.85
2023-03-17T17:20:48.987Z,4.63
2023-03-17T17:23:24.258Z,4.28
2023-03-17T17:25:57.312Z,5.07
2023-03-17T17:28:31.402Z,5.82
2023-03-17T17:31:02.352Z,4.78
2023-03-17T17:33:34.146Z,5.65
2023-03-17T17:36:07.614Z,5.20
2023-03-17T17:38:40.702Z,4.88
2023-03-17T17:41:14.676Z,4.95
2023-03-17T17:43:46.518Z,6.03
2023-03-17T17:46:24.859Z,4.65
2023-03-17T17:48:58.496Z,6.07
2023-03-17T17:51:31.680Z,4.88
2023-03-17T17:54:03.010Z,5.05
2023-03-17T17:56:38.033Z,4.45
2023-03-17T17:59:09.786Z,4.50
2023-03-17T18:01:41.624Z,4.85
2023-03-17T18:04:14.116Z,5.40
2023-03-17T18:06:49.174Z,5.28
2023-03-17T18:09:21.274Z,4.50
2023-03-17T18:11:52.580Z,5.18
2023-03-17T18:14:24.249Z,5.32
2023-03-17T18:16:56.018Z,4.85
2023-03-17T18:19:28.155Z,6.30
2023-03-17T18:21:59.951Z,5.35
2023-03-17T18:24:32.123Z,5.35
2023-03-17T18:27:03.067Z,5.68
2023-03-17T18:29:33.610Z,4.35
2023-03-17T18:32:07.286Z,5.72
2023-03-17T18:34:45.536Z,4.57
2023-03-17T18:37:19.503Z,6.25
2023-03-17T18:40:09.714Z,5.03
2023-03-17T18:42:40.347Z,5.00
2023-03-17T18:45:17.473Z,5.85
2023-03-17T18:47:49.117Z,5.07
2023-03-17T18:50:21.966Z,5.43
2023-03-17T18:52:53.668Z,5.82
2023-03-17T18:55:25.603Z,5.25
2023-03-17T18:57:57.049Z,4.85
2023-03-17T19:00:29.994Z,6.13
2023-03-17T19:03:00.243Z,5.70
2023-03-17T19:05:30.610Z,5.88
2023-03-17T19:08:01.733Z,5.97
2023-03-17T19:10:47.587Z,4.85
2023-03-17T19:13:25.633Z,6.15
2023-03-17T19:16:03.121Z,5.93
2023-03-17T19:18:38.688Z,5.72
2023-03-17T19:21:11.112Z,6.88
2023-03-17T19:23:42.812Z,5.75
2023-03-17T19:26:13.120Z,6.00
2023-03-17T19:44:52.080Z,6.40
2023-03-17T19:47:23.517Z,6.00
2023-03-17T19:49:54.333Z,5.40
2023-03-17T19:52:33.657Z,7.07
2023-03-17T19:55:08.867Z,5.88
2023-03-17T19:57:46.072Z,6.13
2023-03-17T20:00:19.701Z,6.68
2023-03-17T20:03:03.247Z,6.68
2023-03-17T20:08:42.778Z,5.07
2023-03-17T20:11:22.970Z,7.38
2023-03-17T20:16:55.588Z,5.38
2023-03-17T20:19:26.058Z,5.40
2023-03-17T20:21:57.143Z,6.25
2023-03-17T20:24:31.246Z,6.20
2023-03-17T20:27:07.283Z,4.32
2023-03-17T20:29:43.792Z,7.13
2023-03-17T20:32:16.371Z,7.35
2023-03-17T20:34:48.105Z,8.65
2023-03-17T20:37:19.886Z,6.53
2023-03-17T20:39:50.599Z,7.68
2023-03-17T20:42:21.407Z,6.82
2023-03-17T20:44:55.375Z,5.50
2023-03-17T20:47:27.000Z,3.78
2023-03-17T20:50:00.938Z,7.88
2023-03-17T20:52:32.689Z,4.07
2023-03-17T20:55:04.963Z,3.40
2023-03-17T20:57:38.381Z,4.45
2023-03-17T21:00:12.357Z,7.47
2023-03-17T21:02:43.345Z,3.42
2023-03-17T21:05:17.999Z,3.92
2023-03-17T21:07:50.308Z,4.40
2023-03-17T21:10:21.877Z,3.20
2023-03-17T21:12:52.264Z,3.60
2023-03-17T21:15:25.924Z,4.32
2023-03-17T21:17:57.408Z,3.90
2023-03-17T21:20:27.624Z,4.03
2023-03-17T21:22:58.771Z,5.97
2023-03-17T21:25:29.502Z,3.45
2023-03-17T21:27:59.677Z,5.43
2023-03-17T21:30:31.327Z,6.60
2023-03-17T21:33:06.006Z,4.22
2023-03-17T21:35:37.683Z,2.83
2023-03-17T21:38:07.887Z,4.13
2023-03-17T21:40:39.030Z,6.43
2023-03-17T21:43:09.410Z,4.10
2023-03-17T21:45:41.375Z,5.13
2023-03-17T21:48:13.229Z,2.50
2023-03-17T21:50:44.427Z,4.20
2023-03-17T21:53:17.206Z,3.95
2023-03-17T21:55:48.664Z,2.47
2023-03-17T21:58:19.282Z,2.30
2023-03-17T22:00:51.393Z,1.70
2023-03-17T22:03:22.582Z,2.45
2023-03-17T22:05:52.946Z,4.57
2023-03-17T22:08:24.781Z,5.55
2023-03-17T22:10:57.927Z,3.88
2023-03-17T22:13:29.036Z,5.00
2023-03-17T22:16:02.152Z,3.78
2023-03-17T22:18:41.808Z,4.78
2023-03-17T22:21:14.816Z,3.10
2023-03-17T22:23:48.934Z,3.72
2023-03-17T23:02:15.798Z,6.82
2023-03-17T23:04:51.216Z,7.15
2023-03-17T23:07:24.921Z,6.93
2023-03-17T23:09:55.990Z,6.47
2023-03-17T23:12:26.304Z,6.75
2023-03-17T23:14:56.506Z,7.75
2023-03-17T23:17:28.780Z,6.50
2023-03-17T23:19:59.112Z,6.57
2023-03-17T23:22:29.190Z,6.45
2023-03-17T23:25:00.805Z,6.50
2023-03-17T23:27:31.006Z,6.40
2023-03-17T23:30:01.953Z,5.35
2023-03-17T23:32:34.430Z,7.28
2023-03-17T23:35:04.982Z,5.97
2023-03-17T23:37:35.492Z,6.18
2023-03-17T23:40:07.743Z,6.63
2023-03-17T23:42:39.290Z,6.93
2023-03-17T23:45:10.781Z,5.68
2023-03-17T23:47:41.461Z,6.60
2023-03-17T23:50:13.802Z,6.32
2023-03-17T23:52:45.502Z,6.50
2023-03-17T23:55:17.491Z,6.70
2023-03-17T23:57:48.855Z,5.95
